Pitman, Pennsylvania
Current Conditions -  °F | °C
As of 3:38 AM on Monday 24 Nov 2014 (Local Time) from KMUI Reporting Station
Drizzle Drizzle  
Wind Chill: 54°   Ceiling: 500
Heat Index: 54°   Visibility: 9mi
Dew Point: 54°   Wind: 6mph
Humidity: 100%   Direction: 280°W
Pressure: 29.64"   Gusts: NA
Location:  40.71°N, 76.52°W
Report Text: KMUI 240838Z AUTO 28005KT 9SM -DZ BKN005 OVC009 12/12 A2964 RMK AO2 RAE0836DZB0803 $
Loading
Personal Weather Stations






























Interactive Weather Map New forecast layout! Learn more

10-Day Weather Forecast

Advertisements
Track Severe Weather on mobile